Time;durP1;ratioP1;P1;durP2;ratioP2;P2;SDS_P1;SDS_P2;PMS_P1;PMS_P2;Temp;Humidity;BMP_temperature;BMP_pressure;BME280_temperature;BME280_humidity;BME280_pressure;Samples;Min_cycle;Max_cycle;Signal;HPM_P1;HPM_P2
2021/11/17 02:27:44;;;;;;;12.32;6.10;;;;;;;11.56;51.30;101644.03;5025036;28;20504;-69
2021/11/17 02:30:52;;;;;;;13.95;6.85;;;;;;;11.57;51.24;101637.63;5047571;28;20273;-68
2021/11/17 02:33:47;;;;;;;14.73;7.03;;;;;;;11.58;51.35;101633.06;5034802;28;20512;-68
2021/11/17 02:36:32;;;;;;;13.93;6.50;;;;;;;11.61;51.52;101635.63;5046974;28;20540;-67
2021/11/17 02:39:08;;;;;;;11.98;6.35;;;;;;;11.60;51.28;101637.47;5048475;28;20158;-68
2021/11/17 02:41:53;;;;;;;15.02;7.75;;;;;;;11.65;51.34;101642.63;5053203;28;20486;-68
2021/11/17 02:44:29;;;;;;;14.27;7.07;;;;;;;11.64;51.45;101644.47;5048461;28;20048;-68
2021/11/17 02:47:21;;;;;;;16.85;8.38;;;;;;;11.63;51.08;101641.81;5043378;28;20055;-68
2021/11/17 02:50:00;;;;;;;15.50;7.88;;;;;;;11.64;51.17;101630.88;5056841;28;20055;-69
2021/11/17 02:52:45;;;;;;;13.30;8.02;;;;;;;11.64;51.08;101639.03;5065984;28;20572;-69
2021/11/17 02:55:39;;;;;;;18.35;8.57;;;;;;;11.64;51.39;101628.16;5053778;28;20076;-70
2021/11/17 02:58:50;;;;;;;16.70;7.95;;;;;;;11.56;51.61;101627.72;5048017;28;20075;-68
2021/11/17 03:01:24;;;;;;;17.80;7.68;;;;;;;11.64;51.52;101625.41;4938846;28;20059;-68
2021/11/17 03:04:10;;;;;;;15.57;7.40;;;;;;;11.65;51.33;101623.59;4937534;28;20054;-68
2021/11/17 03:06:39;;;;;;;15.30;7.47;;;;;;;11.64;51.32;101619.09;5003857;28;20088;-69
2021/11/17 03:09:18;;;;;;;14.48;7.00;;;;;;;11.67;51.29;101614.38;5063467;28;20102;-68
2021/11/17 03:12:15;;;;;;;16.80;8.85;;;;;;;11.68;51.31;101617.97;5065310;28;20500;-69
2021/11/17 03:15:12;;;;;;;18.27;9.02;;;;;;;11.68;51.46;101617.97;5029666;28;20131;-68
2021/11/17 03:17:57;;;;;;;15.25;8.13;;;;;;;11.68;51.53;101612.53;5066320;28;20124;-69
2021/11/17 03:20:58;;;;;;;16.77;7.72;;;;;;;11.68;51.48;101621.56;5053737;28;20076;-69
2021/11/17 03:23:56;;;;;;;18.35;8.88;;;;;;;11.66;51.44;101619.91;5047713;28;20383;-69
2021/11/17 03:26:36;;;;;;;17.35;8.30;;;;;;;11.67;51.61;101625.25;5034035;28;20127;-69
2021/11/17 03:29:36;;;;;;;16.85;8.45;;;;;;;11.68;51.18;101634.28;5054557;28;20048;-69
2021/11/17 03:32:24;;;;;;;19.73;8.50;;;;;;;11.68;51.21;101631.56;5050318;28;20506;-68
2021/11/17 03:35:12;;;;;;;15.57;8.63;;;;;;;11.66;51.40;101630.78;5064438;28;20503;-69
2021/11/17 03:37:48;;;;;;;17.85;8.82;;;;;;;11.67;51.45;101633.41;5065916;28;20132;-69
2021/11/17 03:40:28;;;;;;;16.38;8.45;;;;;;;11.68;51.37;101639.72;5049873;28;20786;-69
2021/11/17 03:43:20;;;;;;;15.80;7.55;;;;;;;11.65;51.61;101634.47;5046542;28;20390;-68
2021/11/17 03:46:12;;;;;;;16.45;8.18;;;;;;;11.67;51.44;101641.56;5038511;28;20494;-69
2021/11/17 03:49:18;;;;;;;15.45;7.65;;;;;;;11.61;51.64;101638.34;5047903;28;20071;-70
2021/11/17 03:51:44;;;;;;;14.93;7.60;;;;;;;11.66;51.58;101639.81;4944687;28;20829;-69
2021/11/17 03:54:10;;;;;;;15.38;7.80;;;;;;;11.69;51.35;101641.50;4945732;28;20969;-69
2021/11/17 03:56:43;;;;;;;14.20;7.55;;;;;;;11.72;51.40;101642.16;4989150;28;20055;-68
2021/11/17 03:59:38;;;;;;;17.73;8.88;;;;;;;11.70;51.55;101638.66;5064678;28;20142;-69
2021/11/17 04:02:14;;;;;;;18.42;8.23;;;;;;;11.71;51.53;101648.56;5041658;28;20532;-69
2021/11/17 04:05:00;;;;;;;15.13;7.90;;;;;;;11.71;51.51;101640.41;5046728;28;20065;-69
2021/11/17 04:07:47;;;;;;;16.15;8.07;;;;;;;11.72;51.38;101642.16;5046187;28;20054;-69
2021/11/17 04:10:36;;;;;;;17.33;7.70;;;;;;;11.73;51.29;101645.75;5064344;28;20056;-69
2021/11/17 04:13:05;;;;;;;18.75;8.50;;;;;;;11.71;51.27;101654.00;5058952;28;20047;-68
2021/11/17 04:15:41;;;;;;;17.20;7.72;;;;;;;11.73;51.54;101651.22;5040201;28;20060;-68
2021/11/17 04:18:39;;;;;;;15.82;7.68;;;;;;;11.74;51.24;101650.25;5054437;28;20072;-69
2021/11/17 04:21:47;;;;;;;15.88;7.47;;;;;;;11.70;51.62;101662.25;5064029;28;20131;-69
2021/11/17 04:24:26;;;;;;;14.90;6.95;;;;;;;11.71;51.63;101658.56;5039161;28;20123;-69
2021/11/17 04:27:20;;;;;;;14.70;7.80;;;;;;;11.72;51.77;101663.94;5044564;28;20126;-69
2021/11/17 04:30:05;;;;;;;14.05;7.20;;;;;;;11.68;51.31;101670.53;5063961;28;20084;-69
2021/11/17 04:32:41;;;;;;;13.50;6.63;;;;;;;11.71;51.69;101669.44;5030948;28;20136;-69
2021/11/17 04:35:34;;;;;;;16.08;7.72;;;;;;;11.73;51.75;101675.69;5048315;28;20052;-69
2021/11/17 04:38:25;;;;;;;15.82;7.60;;;;;;;11.71;51.96;101670.34;5036649;28;20132;-69
2021/11/17 04:41:03;;;;;;;14.85;7.07;;;;;;;11.71;51.54;101674.91;5068179;28;20143;-69
2021/11/17 04:43:42;;;;;;;14.57;7.40;;;;;;;11.73;51.60;101682.00;5068707;28;20456;-69
2021/11/17 04:46:33;;;;;;;13.80;7.35;;;;;;;11.71;51.58;101672.19;5067177;28;20090;-69
2021/11/17 04:49:18;;;;;;;15.15;7.38;;;;;;;11.72;51.63;101682.97;5062459;28;20128;-68
2021/11/17 04:54:25;;;;;;;14.38;7.68;;;;;;;11.73;51.77;101687.44;5091872;27;20051;-69
2021/11/17 04:57:01;;;;;;;13.75;6.55;;;;;;;11.74;51.77;101691.97;5109862;27;20661;-68
2021/11/17 04:59:36;;;;;;;14.40;6.90;;;;;;;11.75;51.47;101695.56;5088020;28;20516;-68
2021/11/17 05:02:13;;;;;;;14.27;7.78;;;;;;;11.76;51.42;101692.75;5086171;28;20047;-70
2021/11/17 05:04:42;;;;;;;16.80;7.20;;;;;;;11.74;51.53;101689.25;5086970;28;20048;-69
2021/11/17 05:07:18;;;;;;;13.45;7.32;;;;;;;11.77;51.83;101691.78;5087703;28;20054;-69
2021/11/17 05:10:01;;;;;;;14.60;6.82;;;;;;;11.78;51.79;101695.38;5087670;28;20151;-70
2021/11/17 05:12:37;;;;;;;15.35;6.85;;;;;;;11.76;51.60;101686.44;4996635;28;20067;-69
2021/11/17 05:15:25;;;;;;;15.52;7.40;;;;;;;11.79;51.80;101681.69;5066909;28;20052;-68
2021/11/17 05:18:29;;;;;;;12.43;7.00;;;;;;;11.77;51.94;101669.16;5076212;28;20457;-70
2021/11/17 05:21:14;;;;;;;;;;;;;;;11.53;52.29;101670.56;5070073;28;20059;-70
2021/11/17 05:24:01;;;;;;;12.80;6.07;;;;;;;11.76;51.69;101659.22;5087757;28;20054;-68
2021/11/17 05:26:34;;;;;;;13.45;6.80;;;;;;;11.79;51.81;101662.63;4999635;28;20118;-69
2021/11/17 05:29:06;;;;;;;15.13;7.13;;;;;;;11.79;51.72;101669.91;5071318;28;20048;-69
2021/11/17 05:31:55;;;;;;;13.63;7.45;;;;;;;11.77;51.87;101666.44;5086935;28;20075;-69
2021/11/17 05:34:49;;;;;;;13.90;6.70;;;;;;;11.78;52.02;101671.75;5078439;28;20064;-69
2021/11/17 05:37:16;;;;;;;13.45;7.35;;;;;;;11.77;51.90;101664.59;5069452;28;20134;-68
2021/11/17 05:39:51;;;;;;;14.63;6.65;;;;;;;11.81;51.79;101660.72;5086326;28;20135;-69
2021/11/17 05:42:49;;;;;;;14.80;7.15;;;;;;;11.81;51.93;101657.09;5070058;28;20043;-69
2021/11/17 05:45:39;;;;;;;14.75;7.75;;;;;;;11.80;51.66;101672.56;5086775;28;20523;-69
2021/11/17 05:48:31;;;;;;;12.40;6.50;;;;;;;11.79;51.66;101673.50;5088025;28;20501;-70
2021/11/17 05:51:46;;;;;;;14.13;6.57;;;;;;;11.74;51.98;101670.19;5035489;28;20090;-69
2021/11/17 05:54:22;;;;;;;13.07;5.68;;;;;;;11.76;51.61;101675.56;5079784;28;20420;-68
2021/11/17 05:57:11;;;;;;;12.15;6.10;;;;;;;11.77;51.87;101672.75;5095681;28;20051;-69
2021/11/17 05:59:46;;;;;;;16.00;7.47;;;;;;;11.80;51.80;101664.38;5082679;28;20121;-70
2021/11/17 06:02:22;;;;;;;13.75;7.00;;;;;;;11.80;51.81;101664.38;5067560;28;20135;-68
2021/11/17 06:04:49;;;;;;;12.98;6.57;;;;;;;11.78;51.81;101655.44;5083099;28;20059;-69
2021/11/17 06:07:15;;;;;;;12.95;6.75;;;;;;;11.80;51.95;101637.19;5086085;28;20123;-68
2021/11/17 06:09:42;;;;;;;13.27;6.75;;;;;;;11.80;51.55;101618.13;5086090;28;20134;-69
2021/11/17 06:12:12;;;;;;;13.55;6.40;;;;;;;11.82;51.86;101631.66;5066469;28;20044;-68
2021/11/17 06:14:43;;;;;;;13.85;7.03;;;;;;;11.82;51.63;101616.22;5085596;28;20087;-69
2021/11/17 06:17:16;;;;;;;13.00;6.70;;;;;;;11.82;51.84;101621.66;5085522;28;20099;-73
2021/11/17 06:19:47;;;;;;;11.80;5.72;;;;;;;11.81;51.69;101625.34;5058846;28;20082;-70
2021/11/17 06:22:18;;;;;;;14.73;7.35;;;;;;;11.82;51.91;101621.66;5086510;28;20186;-69
2021/11/17 06:24:48;;;;;;;12.77;6.47;;;;;;;11.82;51.61;101626.22;5079898;28;20052;-70
2021/11/17 06:27:26;;;;;;;12.13;6.30;;;;;;;11.82;51.82;101640.69;5083635;28;20075;-69
2021/11/17 06:29:57;;;;;;;12.10;6.18;;;;;;;11.80;51.95;101641.75;5073035;28;20084;-71
2021/11/17 06:32:26;;;;;;;13.27;6.80;;;;;;;11.81;51.70;101641.66;5062848;28;20559;-69
2021/11/17 06:34:56;;;;;;;12.13;6.50;;;;;;;11.82;51.85;101643.41;5083461;28;20079;-71
2021/11/17 06:37:25;;;;;;;12.50;6.60;;;;;;;11.84;51.81;101642.44;5085309;28;20603;-70
2021/11/17 06:39:55;;;;;;;11.52;6.57;;;;;;;11.84;52.03;101640.59;5087022;28;20143;-70
2021/11/17 06:42:31;;;;;;;14.27;7.40;;;;;;;11.86;51.83;101649.53;5085570;28;20412;-70
2021/11/17 06:44:59;;;;;;;10.98;5.90;;;;;;;11.85;51.82;101655.09;5085946;28;20526;-70
2021/11/17 06:47:25;;;;;;;11.90;6.25;;;;;;;11.86;51.62;101641.38;5085940;28;20068;-70
2021/11/17 06:49:53;;;;;;;12.05;6.30;;;;;;;11.86;51.46;101648.69;5080226;28;20090;-70
2021/11/17 06:52:22;;;;;;;9.88;5.93;;;;;;;11.88;51.71;101647.59;5086867;28;20068;-70
2021/11/17 06:54:48;;;;;;;11.70;6.40;;;;;;;11.87;51.67;101650.41;5066161;28;20118;-71
2021/11/17 06:57:18;;;;;;;12.93;6.97;;;;;;;11.87;51.83;101651.28;5081367;28;20048;-70
2021/11/17 06:59:46;;;;;;;11.95;6.22;;;;;;;11.88;51.77;101661.22;5084405;28;20174;-70
2021/11/17 07:02:13;;;;;;;12.30;6.63;;;;;;;11.87;51.86;101654.00;5086377;28;20040;-70
2021/11/17 07:04:40;;;;;;;12.85;7.50;;;;;;;11.88;51.91;101655.78;5085090;28;20130;-68
2021/11/17 07:07:09;;;;;;;18.45;9.30;;;;;;;11.89;51.85;101660.25;5083139;28;20040;-68
2021/11/17 07:09:36;;;;;;;17.45;9.95;;;;;;;11.89;51.86;101660.25;5064062;28;20059;-68
2021/11/17 07:12:03;;;;;;;13.82;8.13;;;;;;;11.89;51.81;101660.25;5065804;28;20051;-68
2021/11/17 07:14:30;;;;;;;12.23;6.63;;;;;;;11.89;51.81;101653.94;5084551;28;20509;-69
2021/11/17 07:16:58;;;;;;;13.70;6.95;;;;;;;11.90;51.99;101651.13;5063376;28;20070;-68
2021/11/17 07:19:24;;;;;;;11.70;6.80;;;;;;;11.89;51.80;101646.63;5085900;28;20051;-69
2021/11/17 07:21:54;;;;;;;11.25;6.60;;;;;;;11.91;51.62;101652.88;5071510;28;20075;-68
2021/11/17 07:24:22;;;;;;;12.32;6.75;;;;;;;11.90;51.72;101645.69;5063570;28;20079;-69
2021/11/17 07:26:48;;;;;;;13.95;7.60;;;;;;;11.89;51.77;101654.81;5084812;28;20469;-68
2021/11/17 07:29:15;;;;;;;10.70;6.38;;;;;;;11.90;51.66;101662.00;5080751;28;20130;-68
2021/11/17 07:31:43;;;;;;;11.90;6.00;;;;;;;11.91;51.55;101658.31;5093456;28;20130;-69
2021/11/17 07:34:11;;;;;;;12.32;6.80;;;;;;;11.90;51.79;101650.25;5084213;28;20415;-68
2021/11/17 07:36:39;;;;;;;10.40;5.97;;;;;;;11.91;51.92;101660.16;5080664;28;20135;-70
2021/11/17 07:39:08;;;;;;;9.75;5.55;;;;;;;11.92;52.09;101661.91;5046586;28;20134;-68
2021/11/17 07:41:35;;;;;;;11.90;5.80;;;;;;;11.91;52.00;101676.50;5063460;28;20074;-69
2021/11/17 07:44:02;;;;;;;8.63;4.97;;;;;;;11.91;51.83;101685.53;5076310;28;20132;-69
2021/11/17 07:46:28;;;;;;;12.13;5.72;;;;;;;11.90;51.76;101689.22;5083543;28;20459;-69
2021/11/17 07:48:57;;;;;;;12.00;6.25;;;;;;;11.91;51.71;101690.97;5084750;28;20069;-70
2021/11/17 07:51:23;;;;;;;10.05;6.10;;;;;;;11.91;51.98;101696.41;5066845;28;20093;-68
2021/11/17 07:53:50;;;;;;;11.68;6.20;;;;;;;11.92;51.99;101700.00;5084173;28;20505;-69
2021/11/17 07:56:17;;;;;;;10.75;5.43;;;;;;;11.92;51.75;101702.75;5078122;28;20114;-68
2021/11/17 07:58:46;;;;;;;10.98;6.53;;;;;;;11.94;51.90;101704.38;5067636;28;20123;-68
2021/11/17 08:01:13;;;;;;;11.70;6.00;;;;;;;11.95;51.96;101705.25;5083615;28;20052;-69
2021/11/17 08:03:44;;;;;;;9.32;5.57;;;;;;;11.97;52.05;101714.22;5084396;28;20501;-68
2021/11/17 08:06:14;;;;;;;10.23;5.57;;;;;;;11.97;51.85;101715.09;5083742;28;20115;-68
2021/11/17 08:08:41;;;;;;;11.48;5.75;;;;;;;11.99;52.09;101713.16;5091134;28;20087;-68
2021/11/17 08:11:10;;;;;;;9.80;5.22;;;;;;;12.00;51.90;101706.75;5064123;28;20050;-68
2021/11/17 08:13:37;;;;;;;10.52;5.35;;;;;;;12.02;52.17;101712.13;5094787;28;20046;-68
2021/11/17 08:16:05;;;;;;;12.25;5.85;;;;;;;12.04;52.03;101711.03;5082933;28;20063;-70
2021/11/17 08:18:33;;;;;;;10.65;6.03;;;;;;;12.04;51.98;101707.44;5082045;28;20486;-68
2021/11/17 08:21:02;;;;;;;10.95;6.03;;;;;;;12.06;51.65;101710.94;5077731;28;20162;-68
2021/11/17 08:23:28;;;;;;;11.98;5.53;;;;;;;12.06;52.01;101706.38;5062803;28;20083;-69
2021/11/17 08:25:55;;;;;;;11.02;5.88;;;;;;;12.07;51.73;101705.41;5064344;28;20059;-69
2021/11/17 08:28:22;;;;;;;9.95;5.32;;;;;;;12.08;51.80;101709.91;5083631;28;20086;-69
2021/11/17 08:30:49;;;;;;;11.00;6.05;;;;;;;12.09;51.80;101706.22;5088528;28;20102;-68
2021/11/17 08:33:16;;;;;;;11.35;5.63;;;;;;;12.11;51.83;101703.38;5080651;28;20139;-68
2021/11/17 08:35:44;;;;;;;10.50;5.85;;;;;;;12.12;51.84;101695.13;5085024;28;20146;-68
2021/11/17 08:38:14;;;;;;;11.30;5.85;;;;;;;12.13;51.95;101696.00;5086868;28;20040;-68
2021/11/17 08:40:50;;;;;;;10.93;5.32;;;;;;;12.15;51.91;101699.53;5068483;28;20110;-68
2021/11/17 08:43:17;;;;;;;9.52;5.38;;;;;;;12.14;51.91;101692.31;5085725;28;20101;-68
2021/11/17 08:45:45;;;;;;;10.65;5.82;;;;;;;12.15;51.81;101692.22;5085447;28;20060;-68
2021/11/17 08:48:12;;;;;;;9.88;5.72;;;;;;;12.15;51.79;101689.50;5065094;28;20050;-68
2021/11/17 08:50:40;;;;;;;11.82;6.13;;;;;;;12.15;51.73;101699.53;5091446;28;20138;-69
2021/11/17 08:53:10;;;;;;;10.55;5.63;;;;;;;12.17;51.50;101694.88;5085884;28;20449;-68
2021/11/17 08:55:41;;;;;;;10.27;5.60;;;;;;;12.17;51.61;101703.03;5081087;28;20095;-68
2021/11/17 08:58:08;;;;;;;12.00;6.13;;;;;;;12.17;51.83;101697.59;5092718;28;20308;-68
2021/11/17 09:00:36;;;;;;;11.30;5.53;;;;;;;12.18;51.72;101692.06;5083814;28;20105;-68
2021/11/17 09:03:06;;;;;;;8.88;5.28;;;;;;;12.21;51.79;101690.97;5068797;28;20048;-68
2021/11/17 09:05:37;;;;;;;10.80;5.38;;;;;;;12.22;52.15;101694.56;5086556;28;20086;-68
2021/11/17 09:08:05;;;;;;;10.15;5.63;;;;;;;12.22;51.74;101690.00;5082303;28;20048;-68
2021/11/17 09:10:37;;;;;;;12.25;5.75;;;;;;;12.24;51.81;101698.09;5085622;28;20134;-68
2021/11/17 09:13:05;;;;;;;10.57;5.68;;;;;;;12.23;51.76;101699.94;5064649;28;20044;-68
2021/11/17 09:15:36;;;;;;;11.60;5.85;;;;;;;12.25;51.71;101705.28;5085050;28;20083;-68
2021/11/17 09:18:05;;;;;;;8.70;5.03;;;;;;;12.25;52.19;101716.19;5083182;28;20052;-70
2021/11/17 09:20:33;;;;;;;11.90;6.05;;;;;;;12.25;51.80;101717.06;5065363;28;20110;-69
2021/11/17 09:23:01;;;;;;;10.25;5.88;;;;;;;12.27;51.51;101717.81;5083460;28;20052;-69
2021/11/17 09:25:28;;;;;;;9.73;5.80;;;;;;;12.27;51.61;101711.53;5086820;28;20040;-68
2021/11/17 09:27:55;;;;;;;10.20;5.63;;;;;;;12.27;51.49;101723.25;5063019;28;20134;-70
2021/11/17 09:30:25;;;;;;;9.90;5.50;;;;;;;12.30;51.71;101735.84;5085084;28;20079;-69
2021/11/17 09:32:56;;;;;;;9.98;5.47;;;;;;;12.30;51.91;101728.53;5071679;28;20458;-68
2021/11/17 09:35:22;;;;;;;9.57;5.70;;;;;;;12.30;51.57;101730.38;5069702;28;20138;-69
2021/11/17 09:37:52;;;;;;;11.85;5.78;;;;;;;12.32;51.84;101729.34;5092889;28;20109;-70
2021/11/17 09:40:23;;;;;;;11.68;5.90;;;;;;;12.33;51.55;101730.22;5085951;28;20132;-69
2021/11/17 09:42:52;;;;;;;10.35;5.32;;;;;;;12.31;51.74;101724.84;5083688;28;20158;-70
2021/11/17 09:45:20;;;;;;;10.98;5.10;;;;;;;12.33;51.85;101727.50;5085879;28;20135;-70
2021/11/17 09:47:49;;;;;;;8.90;5.30;;;;;;;12.33;51.60;101733.81;5060785;28;20506;-71
2021/11/17 09:50:29;;;;;;;10.05;5.43;;;;;;;12.35;51.78;101734.59;5085036;28;20139;-71
2021/11/17 09:53:10;;;;;;;10.35;5.55;;;;;;;12.35;51.95;101726.44;5076088;28;20052;-71
2021/11/17 09:55:55;;;;;;;11.48;5.60;;;;;;;12.35;51.71;101720.13;5081953;28;20050;-71
2021/11/17 09:58:45;;;;;;;10.10;5.18;;;;;;;12.34;51.60;101727.41;5084909;28;20075;-71
2021/11/17 10:01:17;;;;;;;11.43;6.03;;;;;;;12.33;51.91;101717.47;5083542;28;20130;-71
2021/11/17 10:03:47;;;;;;;10.32;5.13;;;;;;;12.34;51.80;101723.81;5084614;28;20467;-71
2021/11/17 10:06:45;;;;;;;8.80;4.93;;;;;;;12.35;51.79;101721.00;5065878;28;20044;-71
2021/11/17 10:14:53;;;;;;;8.20;4.55;;;;;;;12.34;51.68;101735.56;5079378;28;20356;-71
2021/11/17 10:17:28;;;;;;;9.55;5.20;;;;;;;12.37;51.67;101740.81;5085123;28;20135;-71
2021/11/17 10:20:09;;;;;;;11.05;5.80;;;;;;;12.38;51.64;101741.69;5083091;28;20397;-71
2021/11/17 10:22:40;;;;;;;9.48;5.75;;;;;;;12.37;51.59;101745.38;5084559;28;20052;-71
2021/11/17 10:25:09;;;;;;;8.77;4.70;;;;;;;12.39;51.81;101741.59;5085370;28;20051;-71
2021/11/17 10:27:36;;;;;;;11.57;5.80;;;;;;;12.38;51.83;101731.69;5065754;28;20048;-68
2021/11/17 10:30:15;;;;;;;9.57;5.10;;;;;;;12.40;51.63;101737.03;5084867;28;20080;-68
2021/11/17 10:32:46;;;;;;;10.90;5.65;;;;;;;12.43;51.76;101737.75;5069488;28;20051;-68
2021/11/17 10:35:24;;;;;;;10.82;4.80;;;;;;;12.44;51.89;101739.47;5083014;28;20048;-70
2021/11/17 10:38:05;;;;;;;9.15;5.15;;;;;;;12.45;51.74;101737.63;5079385;28;20489;-68
2021/11/17 10:40:48;;;;;;;7.75;4.57;;;;;;;12.46;51.87;101742.97;5083356;28;20058;-68
2021/11/17 10:43:23;;;;;;;9.65;5.28;;;;;;;12.46;51.90;101750.28;5065992;28;20052;-69
2021/11/17 10:46:08;;;;;;;9.15;4.70;;;;;;;12.47;51.70;101754.75;5076561;28;20485;-68
2021/11/17 10:48:51;;;;;;;8.63;4.40;;;;;;;12.50;51.78;101757.31;5083612;28;20138;-68
2021/11/17 10:51:24;;;;;;;10.20;4.75;;;;;;;12.48;51.87;101751.94;5076631;28;20063;-68
2021/11/17 10:53:56;;;;;;;8.48;4.97;;;;;;;12.53;51.80;101751.66;5075700;28;20083;-68
2021/11/17 10:56:25;;;;;;;9.18;5.20;;;;;;;12.55;51.79;101747.88;5084001;28;20084;-68
2021/11/17 10:58:57;;;;;;;8.98;4.47;;;;;;;12.57;51.79;101745.06;5083913;28;20052;-68
2021/11/17 11:01:37;;;;;;;9.20;4.70;;;;;;;12.58;51.69;101744.97;5084004;28;20147;-68
2021/11/17 11:04:10;;;;;;;9.65;4.65;;;;;;;12.60;51.78;101742.13;5076114;28;20048;-68
2021/11/17 11:06:42;;;;;;;10.40;5.15;;;;;;;12.60;51.93;101738.56;5074420;28;20075;-68
2021/11/17 11:09:37;;;;;;;9.27;5.00;;;;;;;12.64;51.69;101742.84;5080820;28;20051;-69
2021/11/17 11:12:05;;;;;;;11.02;4.68;;;;;;;12.61;52.08;101743.88;5081341;28;20082;-69
2021/11/17 11:14:44;;;;;;;9.05;4.82;;;;;;;12.65;51.60;101742.75;5076944;28;20063;-69
2021/11/17 11:17:10;;;;;;;8.73;4.78;;;;;;;12.63;51.83;101738.34;5080377;28;20055;-68
2021/11/17 11:19:37;;;;;;;10.30;5.13;;;;;;;12.65;52.18;101734.56;5083718;28;20393;-69
2021/11/17 11:22:07;;;;;;;8.55;4.57;;;;;;;12.67;52.03;101732.66;5082358;28;20048;-68
2021/11/17 11:24:50;;;;;;;9.27;5.05;;;;;;;12.71;51.85;101741.47;5074623;28;20090;-69
2021/11/17 11:27:22;;;;;;;;;;;;;;;12.44;52.52;101739.47;5080977;28;20101;-69
2021/11/17 11:30:10;;;;;;;9.63;4.32;;;;;;;12.65;51.95;101734.56;5084267;28;20018;-69
2021/11/17 11:32:41;;;;;;;8.38;4.72;;;;;;;12.71;52.03;101736.03;5065672;28;20052;-68
2021/11/17 11:35:08;;;;;;;9.85;5.40;;;;;;;12.71;51.85;101744.22;5083783;28;20135;-68
2021/11/17 11:37:39;;;;;;;9.70;4.93;;;;;;;12.73;51.98;101742.28;5083786;28;20048;-69
2021/11/17 11:40:05;;;;;;;10.25;4.80;;;;;;;12.74;52.18;101738.59;5062265;28;20083;-69
2021/11/17 11:43:00;;;;;;;10.38;5.40;;;;;;;12.75;51.92;101733.03;5085004;28;20557;-68
2021/11/17 11:45:26;;;;;;;9.43;5.18;;;;;;;12.74;51.76;101731.28;5082287;28;20657;-69
2021/11/17 11:48:07;;;;;;;9.23;5.05;;;;;;;12.79;51.96;101728.25;5065361;28;20688;-69
2021/11/17 11:50:37;;;;;;;10.18;5.55;;;;;;;12.79;52.37;101729.13;5078083;28;20135;-68
2021/11/17 11:53:19;;;;;;;11.20;5.75;;;;;;;12.82;52.23;101730.81;5084510;28;20143;-68
2021/11/17 11:55:54;;;;;;;10.10;5.60;;;;;;;12.83;52.15;101729.84;5083775;28;20497;-69
2021/11/17 11:58:20;;;;;;;11.57;5.82;;;;;;;12.82;52.16;101733.53;5083518;28;20083;-69
2021/11/17 12:00:59;;;;;;;10.15;5.90;;;;;;;12.87;52.09;101743.16;5078148;28;20071;-69
2021/11/17 12:03:29;;;;;;;10.77;6.05;;;;;;;12.86;52.37;101737.81;5080824;28;20170;-69
2021/11/17 12:06:12;;;;;;;11.63;6.07;;;;;;;12.90;52.39;101731.22;5083952;28;20082;-69
2021/11/17 12:08:48;;;;;;;;;;;;;;;12.65;52.94;101725.53;5083863;28;20232;-69
2021/11/17 12:11:21;;;;;;;11.10;5.88;;;;;;;12.88;52.40;101727.69;5063708;28;20433;-68
2021/11/17 12:13:58;;;;;;;14.07;7.18;;;;;;;12.93;52.53;101739.16;5082631;28;20084;-69
2021/11/17 12:16:27;;;;;;;15.20;6.85;;;;;;;12.95;52.94;101735.38;5081162;28;20054;-68
2021/11/17 12:18:57;;;;;;;15.20;7.82;;;;;;;12.96;52.77;101736.25;5084987;28;20056;-69
2021/11/17 12:21:43;;;;;;;16.92;7.93;;;;;;;13.01;53.04;101734.16;5062496;28;20127;-69
2021/11/17 12:24:12;;;;;;;14.60;7.47;;;;;;;12.99;52.83;101730.63;5077936;28;20123;-69
2021/11/17 12:26:42;;;;;;;16.77;7.38;;;;;;;13.03;52.73;101734.91;5065426;28;20131;-68
2021/11/17 12:29:25;;;;;;;16.30;8.52;;;;;;;13.06;53.07;101728.38;5084348;28;20516;-69
2021/11/17 12:32:07;;;;;;;16.65;8.45;;;;;;;13.07;53.10;101732.88;5079810;28;20416;-69
2021/11/17 12:35:09;;;;;;;17.05;8.93;;;;;;;13.09;53.41;101731.81;5083583;28;20083;-68
2021/11/17 12:38:05;;;;;;;19.17;9.73;;;;;;;13.12;53.43;101738.91;5070285;28;20052;-68
2021/11/17 12:40:41;;;;;;;17.38;8.38;;;;;;;13.12;53.27;101738.91;5082751;28;20081;-69
2021/11/17 12:43:12;;;;;;;15.82;7.88;;;;;;;13.14;53.34;101740.59;5070801;28;20771;-68
2021/11/17 12:45:59;;;;;;;18.98;8.80;;;;;;;13.18;53.50;101743.97;5083622;28;20197;-69
2021/11/17 12:48:33;;;;;;;16.95;8.10;;;;;;;13.18;53.29;101746.72;5084120;28;20044;-68
2021/11/17 12:51:07;;;;;;;15.85;8.13;;;;;;;13.19;53.43;101752.06;5074146;28;20079;-69
2021/11/17 12:53:42;;;;;;;17.75;8.60;;;;;;;13.24;53.70;101759.97;5086425;28;20485;-68
2021/11/17 12:56:12;;;;;;;18.75;9.13;;;;;;;13.23;53.59;101756.38;5082620;28;20060;-68
2021/11/17 12:58:54;;;;;;;16.63;8.88;;;;;;;13.26;54.13;101758.88;5087518;28;20072;-68
2021/11/17 13:01:38;;;;;;;17.08;8.48;;;;;;;13.26;54.02;101763.47;5087751;28;20048;-68
2021/11/17 13:04:13;;;;;;;16.13;8.23;;;;;;;13.28;53.91;101759.69;5080964;28;20040;-68
2021/11/17 13:06:40;;;;;;;17.15;8.27;;;;;;;13.26;54.06;101752.56;5085591;28;20048;-69
2021/11/17 13:09:27;;;;;;;18.52;8.95;;;;;;;13.31;53.76;101751.31;5084007;28;21060;-68
2021/11/17 13:11:57;;;;;;;20.90;9.23;;;;;;;13.32;53.87;101765.81;5035986;28;20090;-69
2021/11/17 13:14:36;;;;;;;20.65;9.57;;;;;;;13.36;54.47;101766.47;5085827;28;20109;-69
2021/11/17 13:17:11;;;;;;;23.00;10.45;;;;;;;13.36;53.96;101764.63;5084903;28;20084;-68
2021/11/17 13:19:51;;;;;;;22.08;10.10;;;;;;;13.39;53.70;101758.13;5079342;28;20424;-68
2021/11/17 13:22:33;;;;;;;19.63;9.50;;;;;;;13.39;54.10;101764.44;5081304;28;20462;-68
2021/11/17 13:25:12;;;;;;;21.27;10.15;;;;;;;13.38;54.20;101759.97;5084767;28;20155;-69
2021/11/17 13:27:52;;;;;;;23.13;10.50;;;;;;;13.40;54.01;101766.22;5079916;28;20131;-68
2021/11/17 13:30:38;;;;;;;18.23;9.68;;;;;;;13.40;54.65;101762.59;5072561;28;20053;-69
2021/11/17 13:33:27;;;;;;;20.23;9.90;;;;;;;13.42;54.53;101760.66;5079615;28;20141;-69
2021/11/17 13:36:07;;;;;;;21.48;9.95;;;;;;;13.44;54.44;101761.41;5082150;28;20501;-68
2021/11/17 13:38:36;;;;;;;22.42;10.32;;;;;;;13.44;53.91;101765.03;5067694;28;20127;-70
2021/11/17 13:41:07;;;;;;;20.30;10.57;;;;;;;13.46;54.13;101760.34;5077028;28;20083;-69
2021/11/17 13:43:36;;;;;;;20.73;10.38;;;;;;;13.47;53.80;101766.69;5082648;28;20086;-69
2021/11/17 13:46:14;;;;;;;22.02;10.40;;;;;;;13.49;54.32;101771.06;5076393;28;20374;-68
2021/11/17 13:48:43;;;;;;;23.17;10.55;;;;;;;13.51;54.08;101768.22;5087064;28;22341;-68
2021/11/17 13:51:13;;;;;;;24.23;10.80;;;;;;;13.52;53.84;101769.97;5082775;28;20121;-68
2021/11/17 13:53:41;;;;;;;23.88;11.23;;;;;;;13.52;53.85;101776.31;5083543;28;20083;-68
2021/11/17 13:56:29;;;;;;;25.08;11.07;;;;;;;13.56;54.55;101768.81;5085654;28;20055;-69
2021/11/17 13:58:55;;;;;;;22.08;10.80;;;;;;;13.52;53.88;101779.03;5086445;28;20091;-68
2021/11/17 14:01:23;;;;;;;22.10;10.27;;;;;;;13.55;53.78;101780.72;5065901;28;20079;-69
2021/11/17 14:03:51;;;;;;;24.40;11.30;;;;;;;13.56;54.31;101777.88;5089717;28;20082;-69
2021/11/17 14:06:19;;;;;;;22.02;10.52;;;;;;;13.58;53.85;101775.06;5077833;28;20075;-68
2021/11/17 14:08:47;;;;;;;23.95;10.70;;;;;;;13.59;54.19;101776.78;5069856;28;20127;-69
2021/11/17 14:11:15;;;;;;;21.67;9.85;;;;;;;13.61;53.94;101780.31;5068228;28;20081;-68
2021/11/17 14:13:43;;;;;;;22.98;11.05;;;;;;;13.61;54.21;101777.56;5064761;28;20493;-68
2021/11/17 14:16:11;;;;;;;24.60;11.30;;;;;;;13.63;54.07;101784.69;5068368;28;20159;-68
2021/11/17 14:18:39;;;;;;;19.48;9.73;;;;;;;13.63;54.24;101781.09;5086185;28;20648;-68
2021/11/17 14:21:07;;;;;;;23.17;10.88;;;;;;;13.66;54.17;101789.09;5083970;28;20088;-67
2021/11/17 14:23:34;;;;;;;22.70;10.70;;;;;;;13.66;54.28;101778.16;5092842;28;20082;-68
2021/11/17 14:26:02;;;;;;;24.10;11.18;;;;;;;13.69;54.28;101781.56;5064625;28;20052;-68
2021/11/17 14:28:35;;;;;;;22.98;10.32;;;;;;;13.72;54.55;101783.22;5091909;28;20089;-68
2021/11/17 14:31:21;;;;;;;24.10;11.00;;;;;;;13.70;54.16;101788.78;5085090;28;20230;-68
2021/11/17 14:33:55;;;;;;;20.08;9.60;;;;;;;13.71;54.20;101786.94;5085937;28;20147;-68